Time;durP1;ratioP1;P1;durP2;ratioP2;P2;SDS_P1;SDS_P2;PMS_P1;PMS_P2;Temp;Humidity;BMP_temperature;BMP_pressure;BME280_temperature;BME280_humidity;BME280_pressure;Samples;Min_cycle;Max_cycle;Signal;HPM_P1;HPM_P2
2021/01/27 00:00:37;;;;;;;22.17;11.68;;;;;;;0.88;95.35;95724.69;4967404;28;20039;-68
2021/01/27 00:03:03;;;;;;;101.93;41.47;;;;;;;1.31;93.99;95803.19;4967357;28;20112;-66
2021/01/27 00:05:34;;;;;;;7.82;4.07;;;;;;;1.10;92.60;95786.13;4967003;28;20081;-65
2021/01/27 00:08:00;;;;;;;111.82;44.40;;;;;;;1.33;92.23;95812.59;4965354;28;20153;-65
2021/01/27 00:10:26;;;;;;;19.90;9.45;;;;;;;1.44;92.92;95812.94;4965074;28;20123;-67
2021/01/27 00:12:51;;;;;;;17.83;8.50;;;;;;;1.51;93.78;95810.44;4965762;28;20035;-67
2021/01/27 00:15:20;;;;;;;15.80;8.75;;;;;;;1.53;92.63;95806.22;4967102;28;20098;-67
2021/01/27 00:17:46;;;;;;;12.25;5.70;;;;;;;1.64;92.24;95809.28;4967177;28;20491;-65
2021/01/27 00:20:15;;;;;;;10.40;5.55;;;;;;;1.74;89.31;95824.41;4981421;28;20035;-67
2021/01/27 00:22:40;;;;;;;12.65;6.03;;;;;;;1.50;89.68;95806.91;4965394;28;20038;-65
2021/01/27 00:25:08;;;;;;;41.28;15.85;;;;;;;1.54;90.91;95807.84;4966351;28;20035;-67
2021/01/27 00:27:33;;;;;;;3.58;2.50;;;;;;;1.28;88.65;95829.19;4966792;28;20521;-66
2021/01/27 00:29:59;;;;;;;4.50;2.17;;;;;;;0.89;85.96;95747.28;4967055;28;20034;-66
2021/01/27 00:32:28;;;;;;;2.00;1.30;;;;;;;0.90;87.60;95809.63;4966584;28;20049;-64
2021/01/27 00:34:54;;;;;;;4.13;2.05;;;;;;;0.62;89.04;95732.38;4966745;28;20031;-65
2021/01/27 00:37:20;;;;;;;4.43;1.98;;;;;;;0.87;89.80;95785.78;4965176;28;20509;-64
2021/01/27 00:39:46;;;;;;;3.78;1.95;;;;;;;0.36;89.74;95718.28;4965089;28;20101;-65
2021/01/27 00:42:11;;;;;;;3.85;1.90;;;;;;;0.30;93.37;95774.06;4966769;28;20493;-66
2021/01/27 00:44:37;;;;;;;3.83;2.05;;;;;;;0.58;94.00;95807.75;4965383;28;20039;-65
2021/01/27 00:47:02;;;;;;;4.18;1.63;;;;;;;0.43;95.39;95802.16;4966578;28;20034;-67
2021/01/27 00:49:27;;;;;;;5.22;1.95;;;;;;;0.39;95.05;95809.41;4966633;28;20035;-65
2021/01/27 00:51:53;;;;;;;3.28;1.65;;;;;;;0.48;92.39;95812.81;4966247;28;20049;-65
2021/01/27 00:54:18;;;;;;;2.63;1.25;;;;;;;0.45;91.73;95808.84;4966607;28;20389;-66
2021/01/27 00:56:44;;;;;;;3.72;1.20;;;;;;;0.32;92.32;95768.31;4964965;28;20487;-66
2021/01/27 00:59:09;;;;;;;2.60;1.55;;;;;;;0.28;90.57;95749.13;4964810;28;20062;-67
2021/01/27 01:01:34;;;;;;;3.28;1.48;;;;;;;-0.15;88.40;95669.84;4964584;28;20597;-66
2021/01/27 01:04:03;;;;;;;2.15;0.98;;;;;;;0.62;86.18;95797.78;4966444;28;20039;-66
2021/01/27 01:06:28;;;;;;;2.83;1.30;;;;;;;0.71;88.09;95784.84;4965832;28;20027;-66
2021/01/27 01:08:53;;;;;;;1.38;0.75;;;;;;;0.68;87.21;95780.06;4964826;28;20613;-67
2021/01/27 01:11:19;;;;;;;2.22;1.05;;;;;;;-0.18;88.74;95644.13;4980473;28;20030;-66
2021/01/27 01:13:44;;;;;;;3.38;1.20;;;;;;;0.59;87.94;95760.31;4966163;28;20079;-66
2021/01/27 01:16:10;;;;;;;2.08;0.90;;;;;;;0.57;87.59;95773.47;4965763;28;20736;-67
2021/01/27 01:18:35;;;;;;;2.20;0.85;;;;;;;0.72;87.28;95775.56;4966251;28;20495;-67
2021/01/27 01:21:01;;;;;;;2.55;1.27;;;;;;;0.67;86.73;95767.59;4963419;28;20023;-67
2021/01/27 01:23:26;;;;;;;1.80;1.15;;;;;;;0.73;85.92;95771.69;4966110;28;20049;-68
2021/01/27 01:25:52;;;;;;;1.73;1.00;;;;;;;0.43;87.58;95717.75;4964073;28;20038;-67
2021/01/27 01:28:17;;;;;;;1.63;0.85;;;;;;;0.64;83.79;95749.19;4964267;28;20039;-67
2021/01/27 01:30:45;;;;;;;0.60;0.60;;;;;;;0.66;86.65;95776.91;4965864;28;20027;-67
2021/01/27 01:33:22;;;;;;;1.83;0.98;;;;;;;0.75;87.01;95769.41;4964640;28;20586;-67
2021/01/27 01:35:48;;;;;;;2.38;1.10;;;;;;;0.41;85.97;95709.88;4964099;28;20112;-67
2021/01/27 01:38:15;;;;;;;2.28;1.00;;;;;;;0.36;87.57;95729.19;4965940;28;20039;-68
2021/01/27 01:40:48;;;;;;;2.20;1.20;;;;;;;0.91;85.97;95783.97;4965444;28;20062;-67
2021/01/27 01:43:23;;;;;;;3.20;1.20;;;;;;;0.84;87.86;95786.47;4965651;28;20042;-67
2021/01/27 01:46:04;;;;;;;1.63;0.95;;;;;;;0.91;86.11;95778.53;4965010;28;20045;-66
2021/01/27 01:48:33;;;;;;;1.00;0.70;;;;;;;0.87;83.75;95777.59;4965877;28;20096;-65
2021/01/27 01:51:13;;;;;;;1.45;0.70;;;;;;;0.78;86.35;95771.47;4965955;28;20034;-67
2021/01/27 01:53:39;;;;;;;2.47;0.77;;;;;;;0.56;85.01;95752.00;4965609;28;20039;-66
2021/01/27 01:56:08;;;;;;;1.65;0.80;;;;;;;0.74;86.46;95795.09;4965194;28;20041;-66
2021/01/27 01:58:37;;;;;;;2.97;1.20;;;;;;;0.37;87.14;95751.75;4964093;28;20501;-67
2021/01/27 02:01:02;;;;;;;2.05;1.10;;;;;;;0.50;86.97;95773.25;4979878;28;20027;-68
2021/01/27 02:03:31;;;;;;;1.98;0.95;;;;;;;0.67;87.88;95805.72;4965266;28;20125;-68
2021/01/27 02:05:57;;;;;;;1.88;0.95;;;;;;;0.67;86.15;95800.28;4965479;28;20044;-67
2021/01/27 02:08:24;;;;;;;2.30;1.05;;;;;;;0.66;87.27;95804.16;4964081;28;20137;-67
2021/01/27 02:10:49;;;;;;;3.47;1.10;;;;;;;0.64;87.49;95806.41;4965261;28;20027;-69
2021/01/27 02:13:17;;;;;;;1.50;0.50;;;;;;;0.60;87.36;95789.13;4965909;28;20066;-69
2021/01/27 02:16:09;;;;;;;1.25;0.70;;;;;;;0.72;87.86;95796.53;4965595;28;20400;-68
2021/01/27 02:18:53;;;;;;;1.02;0.55;;;;;;;0.68;87.14;95784.75;4964195;28;20434;-68
2021/01/27 02:21:41;;;;;;;1.40;0.60;;;;;;;0.66;86.80;95793.25;4965421;28;20066;-67
2021/01/27 02:24:47;;;;;;;1.38;0.80;;;;;;;0.81;87.01;95800.75;4947518;28;20063;-67
2021/01/27 02:27:26;;;;;;;2.85;0.73;;;;;;;0.35;87.76;95727.56;4943952;29;20051;-67
2021/01/27 02:30:29;;;;;;;1.13;0.65;;;;;;;0.61;89.48;95779.84;4946541;28;20045;-68
2021/01/27 02:33:18;;;;;;;1.03;0.60;;;;;;;0.46;91.09;95760.63;4947943;28;20585;-67
2021/01/27 02:35:47;;;;;;;2.40;0.80;;;;;;;0.61;90.37;95752.59;4949507;28;20425;-68
2021/01/27 02:38:34;;;;;;;1.67;0.70;;;;;;;0.67;88.81;95753.97;4949554;28;20043;-67
2021/01/27 02:41:06;;;;;;;1.77;0.80;;;;;;;0.49;87.60;95759.97;4949396;28;20035;-67
2021/01/27 02:43:37;;;;;;;3.40;1.00;;;;;;;0.22;89.78;95739.59;4964296;28;20043;-68
2021/01/27 02:46:13;;;;;;;2.03;0.90;;;;;;;0.18;88.58;95749.56;4949351;28;20512;-68
2021/01/27 02:48:45;;;;;;;1.27;0.63;;;;;;;0.31;88.66;95774.88;4949647;28;20043;-67
2021/01/27 02:51:24;;;;;;;6.55;1.10;;;;;;;0.46;88.72;95798.78;4963903;28;20634;-67
2021/01/27 02:54:02;;;;;;;1.42;0.68;;;;;;;0.53;89.25;95793.56;4949464;28;20039;-67
2021/01/27 02:56:37;;;;;;;1.52;0.73;;;;;;;0.65;88.75;95802.53;4963200;28;20062;-67
2021/01/27 02:59:15;;;;;;;0.77;0.60;;;;;;;-0.10;87.11;95726.78;4963993;28;20047;-66
2021/01/27 03:01:45;;;;;;;0.75;0.60;;;;;;;0.34;87.46;95780.47;4963978;28;20522;-66
2021/01/27 03:04:17;;;;;;;3.50;0.70;;;;;;;0.71;86.75;95800.41;4949220;28;20498;-69
2021/01/27 03:06:44;;;;;;;1.00;0.52;;;;;;;0.44;85.44;95763.69;4949103;28;20038;-67
2021/01/27 03:09:17;;;;;;;0.52;0.50;;;;;;;-0.36;85.42;95650.06;4949584;28;20110;-68
2021/01/27 03:11:42;;;;;;;1.05;0.68;;;;;;;0.51;86.06;95807.50;4949275;28;20046;-69
2021/01/27 03:14:09;;;;;;;1.13;0.80;;;;;;;0.57;84.71;95817.06;4949318;28;20063;-68
2021/01/27 03:16:58;;;;;;;1.42;0.90;;;;;;;0.64;85.16;95822.75;4963300;28;20062;-68
2021/01/27 03:19:45;;;;;;;3.65;1.02;;;;;;;0.62;84.00;95814.13;4949224;28;20478;-68
2021/01/27 03:22:15;;;;;;;1.48;0.88;;;;;;;0.62;84.50;95825.00;4963139;28;20486;-68
2021/01/27 03:24:53;;;;;;;2.13;0.80;;;;;;;0.65;81.32;95835.25;4966695;28;20039;-67
2021/01/27 03:27:24;;;;;;;2.10;1.10;;;;;;;0.53;80.78;95818.88;4966442;28;20042;-69
2021/01/27 03:29:58;;;;;;;1.90;1.00;;;;;;;0.73;81.21;95842.53;4966669;28;20045;-67
2021/01/27 03:32:30;;;;;;;1.30;1.05;;;;;;;0.80;80.94;95837.34;4967274;28;20072;-67
2021/01/27 03:35:04;;;;;;;2.75;1.10;;;;;;;0.86;82.22;95841.44;4968223;28;20113;-69
2021/01/27 03:37:51;;;;;;;2.45;1.20;;;;;;;0.85;81.42;95828.94;4966123;28;20034;-69
2021/01/27 03:40:19;;;;;;;4.80;1.40;;;;;;;0.60;81.35;95815.59;4966369;28;20417;-68
2021/01/27 03:42:56;;;;;;;0.93;0.70;;;;;;;0.68;79.47;95840.00;4966200;28;20057;-68
2021/01/27 03:45:26;;;;;;;1.45;0.80;;;;;;;0.72;81.14;95846.41;4965802;28;20046;-68
2021/01/27 03:48:02;;;;;;;3.22;1.05;;;;;;;0.58;82.69;95807.75;4966031;28;20043;-68
2021/01/27 03:50:29;;;;;;;1.77;0.80;;;;;;;0.73;82.87;95839.81;4967357;28;20043;-67
2021/01/27 03:53:06;;;;;;;2.38;1.00;;;;;;;0.78;82.27;95836.06;4967670;28;20034;-69
2021/01/27 03:56:02;;;;;;;2.15;1.38;;;;;;;0.82;81.67;95851.41;4967430;28;20050;-68
2021/01/27 03:58:35;;;;;;;1.60;0.80;;;;;;;0.18;81.65;95744.09;4965963;28;20048;-69
2021/01/27 04:01:05;;;;;;;3.83;1.08;;;;;;;0.82;82.46;95826.09;4965958;28;20073;-66
2021/01/27 04:03:31;;;;;;;3.10;1.00;;;;;;;0.52;84.40;95803.63;4967885;28;20085;-68
2021/01/27 04:05:57;;;;;;;2.08;1.10;;;;;;;0.43;85.08;95794.78;4965753;28;20038;-68
2021/01/27 04:08:22;;;;;;;0.68;0.55;;;;;;;0.72;81.67;95837.41;4966106;28;20042;-67
2021/01/27 04:10:48;;;;;;;3.13;0.82;;;;;;;0.90;80.29;95839.59;4967964;28;20035;-67
2021/01/27 04:13:13;;;;;;;1.75;0.85;;;;;;;0.76;83.35;95858.19;4967420;28;20489;-67
2021/01/27 04:15:39;;;;;;;2.05;0.75;;;;;;;0.74;80.91;95848.78;4965553;28;20038;-67
2021/01/27 04:18:04;;;;;;;1.65;0.80;;;;;;;0.07;79.26;95732.06;4966998;28;20520;-67
2021/01/27 04:20:30;;;;;;;1.00;0.70;;;;;;;0.74;81.17;95797.81;4966854;28;20528;-67
2021/01/27 04:22:55;;;;;;;2.10;0.75;;;;;;;0.94;81.35;95835.09;4965506;28;20482;-68
2021/01/27 04:25:21;;;;;;;1.60;0.70;;;;;;;0.99;81.29;95807.59;4958976;28;20049;-68
2021/01/27 04:27:46;;;;;;;1.90;1.05;;;;;;;1.07;78.42;95814.88;4962198;28;20146;-67
2021/01/27 04:30:15;;;;;;;1.05;0.70;;;;;;;0.75;79.44;95850.34;4947948;28;20043;-68
2021/01/27 04:32:41;;;;;;;2.65;0.93;;;;;;;0.64;80.41;95746.47;4962121;28;20031;-68
2021/01/27 04:35:07;;;;;;;3.17;1.23;;;;;;;1.20;82.32;95824.66;4947268;28;20098;-69
2021/01/27 04:37:33;;;;;;;2.60;1.02;;;;;;;0.32;82.04;95722.81;4962154;28;20035;-67
2021/01/27 04:39:59;;;;;;;2.95;1.08;;;;;;;0.75;79.83;95796.66;4961952;28;20410;-67
2021/01/27 04:42:26;;;;;;;1.40;0.80;;;;;;;0.87;80.25;95821.19;4961983;28;20043;-68
2021/01/27 04:44:54;;;;;;;3.60;0.82;;;;;;;0.43;79.73;95750.44;4962056;28;20086;-68
2021/01/27 04:47:39;;;;;;;2.85;1.13;;;;;;;0.59;83.92;95814.78;4947126;28;20050;-67
2021/01/27 04:50:11;;;;;;;4.85;1.60;;;;;;;0.57;83.95;95794.47;4946927;28;20035;-68
2021/01/27 04:53:00;;;;;;;3.97;1.50;;;;;;;0.51;86.13;95791.16;4947301;28;20039;-67
2021/01/27 04:55:30;;;;;;;3.58;1.60;;;;;;;0.58;86.09;95812.41;4947616;28;20043;-67
2021/01/27 04:58:34;;;;;;;4.25;2.13;;;;;;;0.58;85.28;95813.22;4961736;28;20035;-67
2021/01/27 05:01:15;;;;;;;;;;;;;;;0.50;85.52;95803.19;4947244;28;20031;-67
2021/01/27 05:03:43;;;;;;;2.35;1.25;;;;;;;0.48;85.21;95821.81;4946894;28;20396;-67
2021/01/27 05:06:16;;;;;;;3.42;1.45;;;;;;;0.46;85.90;95809.66;4946824;28;20046;-67
2021/01/27 05:08:49;;;;;;;1.75;0.85;;;;;;;0.34;86.36;95823.22;4961409;28;20062;-67
2021/01/27 05:11:18;;;;;;;3.97;1.45;;;;;;;0.21;85.57;95814.22;4946705;28;20031;-67
2021/01/27 05:13:48;;;;;;;2.60;1.00;;;;;;;0.56;84.12;95848.16;4961404;28;20037;-67
2021/01/27 05:16:18;;;;;;;2.78;1.10;;;;;;;0.48;85.34;95846.31;4946365;28;20110;-68
2021/01/27 05:18:44;;;;;;;2.70;1.10;;;;;;;0.51;84.06;95853.00;4946710;28;20464;-67
2021/01/27 05:21:24;;;;;;;2.38;1.13;;;;;;;0.47;84.90;95842.00;4966429;28;20026;-68
2021/01/27 05:23:50;;;;;;;2.75;1.40;;;;;;;0.54;82.61;95841.47;4966084;28;20042;-67
2021/01/27 05:26:18;;;;;;;3.45;1.73;;;;;;;0.43;84.87;95830.19;4965665;28;20031;-67
2021/01/27 05:28:54;;;;;;;1.75;0.65;;;;;;;0.25;81.13;95822.50;4964322;28;20054;-68
2021/01/27 05:31:20;;;;;;;2.05;0.85;;;;;;;0.46;79.98;95850.50;4965693;28;20101;-67
2021/01/27 05:33:51;;;;;;;1.52;0.73;;;;;;;0.46;81.85;95847.78;4964284;28;20125;-67
2021/01/27 05:36:21;;;;;;;1.30;0.60;;;;;;;0.63;82.20;95881.13;4964220;28;20074;-68
2021/01/27 05:38:47;;;;;;;3.15;0.60;;;;;;;0.56;81.26;95867.22;4966076;28;20121;-66
2021/01/27 05:41:22;;;;;;;1.83;0.70;;;;;;;0.72;78.14;95856.47;4965621;28;20041;-66
2021/01/27 05:43:50;;;;;;;0.82;0.60;;;;;;;0.68;79.26;95844.69;4966313;28;20039;-67
2021/01/27 05:46:36;;;;;;;0.95;0.60;;;;;;;0.58;81.32;95823.31;4965817;28;20039;-67
2021/01/27 05:49:09;;;;;;;2.53;1.58;;;;;;;0.58;79.96;95840.44;4963885;28;20570;-67
2021/01/27 05:51:38;;;;;;;0.88;0.60;;;;;;;0.61;78.70;95828.88;4980310;28;20042;-66
2021/01/27 05:54:26;;;;;;;1.85;1.15;;;;;;;0.01;82.20;95744.28;4965860;28;20043;-67
2021/01/27 05:56:53;;;;;;;0.55;0.40;;;;;;;0.07;80.28;95775.59;4965954;28;20038;-68
2021/01/27 05:59:28;;;;;;;6.45;0.93;;;;;;;0.26;80.06;95800.41;4964540;28;20507;-66
2021/01/27 06:02:01;;;;;;;1.13;0.68;;;;;;;0.20;81.74;95785.41;4962351;28;20031;-68
2021/01/27 06:04:29;;;;;;;1.42;0.65;;;;;;;0.48;82.20;95821.81;4965519;28;20038;-65
2021/01/27 06:07:01;;;;;;;1.27;0.70;;;;;;;0.53;81.27;95821.59;4964994;28;20881;-68
2021/01/27 06:09:41;;;;;;;1.08;0.68;;;;;;;-1.12;79.59;95578.16;4967819;28;20169;-65
2021/01/27 06:12:24;;;;;;;1.08;0.80;;;;;;;0.09;81.33;95732.50;4967413;28;20141;-65
2021/01/27 06:15:09;;;;;;;1.25;0.50;;;;;;;0.47;79.32;95806.59;4969507;28;20041;-63
2021/01/27 06:17:54;;;;;;;1.70;0.60;;;;;;;-2.19;78.44;95374.50;4983810;28;20059;-62
2021/01/27 06:20:28;;;;;;;2.83;1.08;;;;;;;0.54;79.76;95812.28;4968371;28;20046;-62
2021/01/27 06:23:02;;;;;;;1.35;0.70;;;;;;;0.57;80.55;95810.81;4969109;28;20027;-61
2021/01/27 06:26:19;;;;;;;0.77;0.52;;;;;;;-0.20;77.68;95667.34;4968721;28;20449;-62
2021/01/27 06:28:54;;;;;;;1.80;0.60;;;;;;;0.57;77.38;95803.44;4959906;28;20056;-64
2021/01/27 06:31:22;;;;;;;0.65;0.50;;;;;;;0.65;79.71;95786.19;4968368;28;20030;-65
2021/01/27 06:34:00;;;;;;;1.10;0.65;;;;;;;0.56;78.72;95781.97;4969251;28;20043;-65
2021/01/27 06:36:31;;;;;;;1.73;0.63;;;;;;;0.64;78.16;95783.81;4967132;28;20560;-63
2021/01/27 06:39:02;;;;;;;2.45;1.15;;;;;;;0.68;79.42;95782.78;4968637;28;20050;-66
2021/01/27 06:41:49;;;;;;;1.02;0.65;;;;;;;0.67;77.45;95789.38;4966600;28;20043;-66
2021/01/27 06:44:33;;;;;;;1.60;0.75;;;;;;;0.56;77.12;95785.50;4967131;28;20497;-69
2021/01/27 06:47:17;;;;;;;2.63;1.00;;;;;;;-0.15;78.98;95680.72;4968268;28;20051;-65
2021/01/27 06:49:50;;;;;;;2.20;0.88;;;;;;;-1.02;77.83;95575.84;4968660;28;20133;-64
2021/01/27 06:52:44;;;;;;;3.97;0.70;;;;;;;-0.34;77.52;95704.91;4968584;28;20042;-62
2021/01/27 06:55:23;;;;;;;5.30;3.72;;;;;;;-0.13;76.81;95750.00;4968873;28;20077;-65
2021/01/27 06:57:58;;;;;;;2.47;1.05;;;;;;;-0.25;75.92;95652.03;4963910;28;20090;-68
2021/01/27 07:00:41;;;;;;;17.52;12.88;;;;;;;0.56;77.09;95782.78;4969189;28;20035;-67
2021/01/27 07:03:40;;;;;;;1.88;0.65;;;;;;;0.53;76.83;95775.28;4986362;28;20484;-69
2021/01/27 07:06:05;;;;;;;0.75;0.65;;;;;;;0.53;75.60;95783.47;4978652;28;20559;-65
2021/01/27 07:08:37;;;;;;;2.05;1.23;;;;;;;0.63;75.39;95772.16;4967771;28;20469;-68
2021/01/27 07:11:08;;;;;;;3.67;1.23;;;;;;;0.67;75.12;95770.31;4967630;28;20462;-66
2021/01/27 07:13:51;;;;;;;28.85;19.98;;;;;;;0.74;74.97;95770.56;4968439;28;20097;-66
2021/01/27 07:16:47;;;;;;;2.25;1.10;;;;;;;0.73;75.89;95782.59;4966471;28;20581;-68
2021/01/27 07:19:31;;;;;;;1.73;0.80;;;;;;;0.79;75.12;95797.56;4966509;28;20050;-66
2021/01/27 07:22:30;;;;;;;1.00;0.60;;;;;;;0.89;72.91;95791.69;4967689;28;20043;-62
2021/01/27 07:25:17;;;;;;;1.88;0.82;;;;;;;0.83;75.43;95781.34;4964315;28;20073;-64
2021/01/27 07:27:54;;;;;;;2.00;0.80;;;;;;;0.78;75.35;95796.00;4981879;28;20510;-69
2021/01/27 07:30:22;;;;;;;2.63;0.80;;;;;;;0.79;74.57;95813.91;4966219;28;20043;-65
2021/01/27 07:33:03;;;;;;;2.78;0.85;;;;;;;0.66;72.91;95725.16;4982806;28;20035;-68
2021/01/27 07:35:38;;;;;;;1.10;0.73;;;;;;;1.11;73.61;95772.16;4972473;28;20043;-68
2021/01/27 07:38:16;;;;;;;2.00;0.85;;;;;;;0.65;73.76;95693.56;4948790;28;20482;-69
2021/01/27 07:40:54;;;;;;;1.38;0.73;;;;;;;0.84;72.26;95772.81;4948559;28;20031;-68
2021/01/27 07:43:28;;;;;;;1.50;1.00;;;;;;;0.94;74.58;95820.66;4285082;28;20004124;-66
2021/01/27 07:45:55;;;;;;;1.50;0.50;;;;;;;0.49;74.00;95766.19;4966217;28;20129;-66
2021/01/27 07:48:28;;;;;;;1.58;0.60;;;;;;;0.63;74.11;95763.97;4997579;28;20045;-67
2021/01/27 07:51:02;;;;;;;2.20;0.73;;;;;;;1.06;74.52;95809.78;4986699;28;20081;-67
2021/01/27 07:54:02;;;;;;;0.70;0.50;;;;;;;-0.30;74.37;95618.81;4985087;28;20053;-68
2021/01/27 07:56:42;;;;;;;1.40;0.50;;;;;;;-1.04;75.91;95596.31;4985741;28;20034;-67
2021/01/27 07:59:13;;;;;;;1.00;0.60;;;;;;;0.87;76.14;95809.53;4986056;28;20521;-67
2021/01/27 08:01:46;;;;;;;1.45;0.70;;;;;;;0.43;76.02;95734.84;4983199;28;20038;-63
2021/01/27 08:04:37;;;;;;;0.85;0.50;;;;;;;0.67;75.99;95778.50;4986585;28;20225;-66
2021/01/27 08:07:03;;;;;;;0.60;0.60;;;;;;;0.48;76.93;95731.94;4985918;28;20038;-68
2021/01/27 08:09:33;;;;;;;2.40;0.60;;;;;;;0.40;78.29;95746.44;4986660;28;20520;-69
2021/01/27 08:12:11;;;;;;;1.90;0.90;;;;;;;0.07;76.24;95696.66;4985156;28;20054;-65
2021/01/27 08:15:10;;;;;;;0.30;0.30;;;;;;;0.97;74.39;95837.13;4986988;28;20046;-70
2021/01/27 08:17:44;;;;;;;0.90;0.60;;;;;;;0.97;76.96;95831.69;4985992;28;20054;-66
2021/01/27 08:20:25;;;;;;;3.03;1.13;;;;;;;1.20;77.04;95830.09;4985974;28;20121;-66
2021/01/27 08:22:57;;;;;;;0.90;0.50;;;;;;;1.15;75.17;95822.16;4984954;28;20044;-62
2021/01/27 08:25:52;;;;;;;1.58;0.82;;;;;;;1.31;75.51;95828.50;4985994;28;20042;-65
2021/01/27 08:28:25;;;;;;;1.02;0.80;;;;;;;1.03;76.33;95824.88;4986391;28;20057;-67
2021/01/27 08:31:12;;;;;;;1.77;0.90;;;;;;;0.92;77.08;95826.44;4983952;28;20030;-64
2021/01/27 08:33:50;;;;;;;1.75;0.82;;;;;;;1.09;76.62;95823.50;4986175;28;20083;-63
2021/01/27 08:36:29;;;;;;;0.95;0.70;;;;;;;0.79;76.38;95818.59;4985638;28;20037;-63
2021/01/27 08:38:57;;;;;;;2.05;0.80;;;;;;;0.69;76.83;95819.81;4984259;28;20038;-63
2021/01/27 08:41:43;;;;;;;2.40;0.70;;;;;;;0.20;77.83;95801.75;4983603;28;20030;-64
2021/01/27 08:44:20;;;;;;;1.80;0.65;;;;;;;0.51;78.71;95818.41;4986257;28;20112;-62
2021/01/27 08:46:49;;;;;;;1.45;0.55;;;;;;;0.77;77.09;95816.22;4988861;28;20045;-65
2021/01/27 08:49:36;;;;;;;0.90;0.57;;;;;;;0.52;78.73;95809.09;4985805;28;20056;-62
2021/01/27 08:52:11;;;;;;;0.50;0.50;;;;;;;0.47;77.20;95825.66;4985248;28;20169;-62
2021/01/27 08:54:39;;;;;;;1.45;0.60;;;;;;;0.73;77.06;95826.19;4985184;28;20115;-63
2021/01/27 08:57:36;;;;;;;0.93;0.60;;;;;;;0.72;77.13;95813.69;4984617;28;20508;-68
2021/01/27 09:00:13;;;;;;;1.13;0.60;;;;;;;0.54;76.57;95806.84;4985918;28;20034;-59
2021/01/27 09:02:49;;;;;;;1.52;0.80;;;;;;;-0.75;77.96;95656.00;4984060;28;20034;-62
2021/01/27 09:05:19;;;;;;;4.45;1.20;;;;;;;0.36;77.19;95782.84;4964842;28;20050;-62
2021/01/27 09:07:59;;;;;;;1.05;0.50;;;;;;;0.66;75.81;95836.84;4965893;28;20033;-63
2021/01/27 09:10:31;;;;;;;0.70;0.50;;;;;;;0.19;76.53;95821.13;4968483;28;20042;-64
2021/01/27 09:12:56;;;;;;;1.02;0.60;;;;;;;0.71;76.52;95817.53;4983708;28;20501;-64
2021/01/27 09:15:34;;;;;;;1.65;1.02;;;;;;;-0.06;78.02;95727.69;4985377;28;20117;-66
2021/01/27 09:18:03;;;;;;;2.20;0.85;;;;;;;0.58;78.11;95807.75;4985563;28;20355;-67
2021/01/27 09:20:31;;;;;;;1.85;0.70;;;;;;;0.52;78.17;95798.19;4985664;28;20034;-64
2021/01/27 09:23:02;;;;;;;1.45;0.65;;;;;;;0.64;76.04;95844.56;4983918;28;20421;-64
2021/01/27 09:25:28;;;;;;;3.25;0.60;;;;;;;0.61;77.06;95867.03;4984233;28;20501;-61
2021/01/27 09:28:04;;;;;;;222.02;196.02;;;;;;;0.98;79.95;95849.63;4983993;28;20034;-64
2021/01/27 09:30:29;;;;;;;6.00;1.83;;;;;;;0.58;76.14;95742.38;4984537;28;20139;-66
2021/01/27 09:33:16;;;;;;;111.65;89.32;;;;;;;1.80;72.23;95821.09;4983829;28;20144;-69
2021/01/27 09:35:44;;;;;;;42.60;30.92;;;;;;;1.12;73.23;95655.72;4983479;28;20077;-68
2021/01/27 09:38:20;;;;;;;117.78;105.22;;;;;;;1.81;71.46;95821.88;4984876;28;20039;-65
2021/01/27 09:40:50;;;;;;;500.45;340.90;;;;;;;1.79;74.42;95794.16;4984859;28;20037;-64
2021/01/27 09:43:18;;;;;;;6.38;2.90;;;;;;;2.50;70.36;95822.31;4977436;28;20050;-66
2021/01/27 09:45:47;;;;;;;3.05;1.60;;;;;;;2.79;68.37;95825.50;4982842;28;20037;-65
2021/01/27 09:48:16;;;;;;;4.53;1.70;;;;;;;2.59;69.05;95792.94;4984457;28;20047;-67
2021/01/27 09:50:48;;;;;;;2.30;1.30;;;;;;;3.38;66.73;95835.59;4984589;28;20035;-64
2021/01/27 09:53:27;;;;;;;9.75;4.95;;;;;;;4.00;66.91;95858.19;4990860;28;20499;-65
2021/01/27 09:55:53;;;;;;;21.85;11.10;;;;;;;4.04;64.35;95801.56;4987875;28;20039;-66
2021/01/27 09:58:20;;;;;;;22.15;11.05;;;;;;;4.57;63.26;95852.78;4980746;28;20042;-65
2021/01/27 10:00:46;;;;;;;17.75;12.07;;;;;;;4.41;61.27;95807.44;4987555;28;20464;-68
2021/01/27 10:03:15;;;;;;;31.35;17.13;;;;;;;4.39;62.83;95785.06;4983994;28;20033;-67
2021/01/27 10:05:41;;;;;;;23.55;9.05;;;;;;;4.19;63.61;95860.19;4983337;28;20121;-68
2021/01/27 10:08:28;;;;;;;32.55;11.55;;;;;;;4.08;65.76;95851.72;4984174;28;20049;-67
2021/01/27 10:11:13;;;;;;;3.60;0.90;;;;;;;2.78;66.37;95793.06;4983296;28;20038;-67
2021/01/27 10:13:41;;;;;;;8.15;4.22;;;;;;;3.86;67.69;95868.84;4985166;28;20433;-67
2021/01/27 10:16:13;;;;;;;3.30;1.83;;;;;;;3.01;65.09;95766.69;4984574;28;20026;-67
2021/01/27 10:18:41;;;;;;;11.98;4.00;;;;;;;3.61;65.67;95872.94;5016201;28;20429;-67
2021/01/27 10:21:11;;;;;;;25.10;7.18;;;;;;;3.61;62.77;95809.16;4984573;28;20034;-66
2021/01/27 10:23:41;;;;;;;1.45;1.00;;;;;;;2.87;62.86;95738.97;4983092;28;20484;-66
2021/01/27 10:26:35;;;;;;;1.17;0.70;;;;;;;3.44;66.46;95867.81;4983586;28;20038;-66
2021/01/27 10:29:15;;;;;;;6.00;2.30;;;;;;;3.82;63.67;95861.69;4982806;28;20077;-65
2021/01/27 10:31:43;;;;;;;1.98;1.08;;;;;;;3.35;59.39;95782.34;4995419;28;20042;-65
2021/01/27 10:34:08;;;;;;;2.00;1.00;;;;;;;3.62;60.11;95869.03;4983036;28;20050;-63
2021/01/27 10:36:40;;;;;;;3.42;1.17;;;;;;;3.86;59.63;95855.13;5004391;28;20025;-66
2021/01/27 10:39:21;;;;;;;2.38;1.30;;;;;;;3.26;55.37;95727.03;4989444;28;20038;-67
2021/01/27 10:42:14;;;;;;;2.50;1.15;;;;;;;3.47;53.81;95754.91;4983152;28;20026;-64
2021/01/27 10:44:41;;;;;;;5.60;2.47;;;;;;;4.48;57.16;95852.22;4983409;28;20027;-69
2021/01/27 10:47:10;;;;;;;3.92;1.80;;;;;;;4.53;54.30;95843.72;4984485;28;20029;-68
2021/01/27 10:49:45;;;;;;;2.25;1.27;;;;;;;3.81;53.36;95726.72;4982163;28;20038;-63
2021/01/27 10:52:27;;;;;;;4.18;2.10;;;;;;;4.64;51.97;95839.25;4983553;28;20057;-70
2021/01/27 10:54:55;;;;;;;4.78;2.38;;;;;;;4.80;52.96;95835.59;4985802;28;20485;-70
2021/01/27 10:57:21;;;;;;;7.57;4.15;;;;;;;4.16;52.77;95677.31;4995600;28;20068;-70
2021/01/27 10:59:46;;;;;;;7.07;3.75;;;;;;;4.42;51.17;95678.22;4991455;28;20061;-67
2021/01/27 11:02:12;;;;;;;7.10;4.15;;;;;;;5.55;50.02;95817.34;4987137;28;20072;-69
2021/01/27 11:04:38;;;;;;;8.13;4.13;;;;;;;5.14;49.31;95720.19;4985513;28;20076;-68
2021/01/27 11:07:03;;;;;;;8.02;4.32;;;;;;;5.83;46.97;95820.59;4986228;28;20412;-69
2021/01/27 11:09:29;;;;;;;7.70;3.63;;;;;;;5.91;47.06;95800.28;4982345;28;20473;-68
2021/01/27 11:11:55;;;;;;;7.85;4.05;;;;;;;4.57;46.52;95893.13;5001334;28;20030;-64
2021/01/27 11:14:20;;;;;;;5.55;3.55;;;;;;;5.79;47.15;95827.94;4987498;28;20041;-69
2021/01/27 11:16:46;;;;;;;6.25;2.70;;;;;;;4.01;47.78;95602.31;4985473;28;20061;-68
2021/01/27 11:19:12;;;;;;;5.00;2.80;;;;;;;5.74;49.89;95820.00;4987153;28;20146;-71
2021/01/27 11:21:38;;;;;;;20.20;8.88;;;;;;;5.15;51.82;95770.41;4986934;28;20664;-64
2021/01/27 11:24:04;;;;;;;16.20;8.20;;;;;;;5.79;52.77;95833.41;4984827;28;20034;-72
2021/01/27 11:26:30;;;;;;;12.90;5.30;;;;;;;5.22;51.00;95828.16;4986961;28;20110;-67
2021/01/27 11:28:56;;;;;;;12.30;6.55;;;;;;;4.51;53.53;95757.47;4985905;28;20042;-69
2021/01/27 11:31:21;;;;;;;12.57;7.00;;;;;;;5.69;54.39;95825.81;4991523;28;20511;-62
2021/01/27 11:33:47;;;;;;;10.73;6.35;;;;;;;5.82;51.55;95821.72;4985951;28;20034;-65
2021/01/27 11:36:17;;;;;;;9.98;5.05;;;;;;;6.34;51.52;95816.19;4986975;28;20421;-65
2021/01/27 11:38:44;;;;;;;15.57;8.50;;;;;;;6.37;49.57;95881.44;4987479;28;20264;-66
2021/01/27 11:41:09;;;;;;;20.38;10.23;;;;;;;6.37;50.68;95823.69;4987019;28;20524;-64
2021/01/27 11:43:37;;;;;;;11.30;5.57;;;;;;;6.19;47.76;95753.94;4986694;28;20123;-63
2021/01/27 11:46:02;;;;;;;9.88;5.20;;;;;;;6.56;48.16;95818.03;4985135;28;20061;-63
2021/01/27 11:48:28;;;;;;;7.43;4.53;;;;;;;6.51;46.71;95821.16;4986426;28;20134;-62
2021/01/27 11:50:53;;;;;;;15.15;7.40;;;;;;;6.21;48.80;95801.09;5016653;28;20030;-65
2021/01/27 11:53:19;;;;;;;10.63;6.38;;;;;;;6.61;46.34;95814.97;4986856;28;20038;-65
2021/01/27 11:55:44;;;;;;;13.88;7.03;;;;;;;6.69;47.67;95822.16;4986607;28;20412;-67
2021/01/27 11:58:10;;;;;;;15.00;8.65;;;;;;;6.86;48.10;95818.78;4976480;28;20142;-65
2021/01/27 12:00:35;;;;;;;9.93;5.97;;;;;;;6.76;47.46;95821.44;4965782;28;20184;-63
2021/01/27 12:03:02;;;;;;;10.20;6.50;;;;;;;6.86;48.98;95805.03;4967543;28;20027;-64
2021/01/27 12:05:27;;;;;;;13.95;9.07;;;;;;;6.70;46.36;95787.19;4984285;28;20034;-63